Amuras — CSWI — position and weather

sailwx.info

Track history (hours):
 
Tides and Currents Weather Stations Pressure Air Temp Water Temp Dewpoint Dewpoint Depression Visibility Wind Speed Wind Dir Waves Ship Positions

Amuras

Last reported at 2017-Oct-24 09:06 UTC. Time now 2017-Nov-23 02:05 UTC.
Position N 37°08' W 008°32'.
Warning: this ship's position is 29 days out of date.

Length 20 m.

Type: Fishing. MMSI: 263421980.

Date/timePositionNaut miles runAvg speedWind from/ knotsBaromVisibWave heightAir tempDewpointWater temp
2017-Oct-24 09:06N 37°08' W 008°32'0 0.0
2017-Oct-24 09:00N 37°08' W 008°32'0 0.0
2017-Oct-24 08:30N 37°08' W 008°32'0 0.0
2017-Oct-24 07:59N 37°08' W 008°32'0 0.0
2017-Oct-24 07:30N 37°08' W 008°32'0 0.1
2017-Oct-24 07:00N 37°08' W 008°32'2 3.9
2017-Oct-24 06:30N 37°06' W 008°32'4 8.5
2017-Oct-24 06:00N 37°04' W 008°37'2 4.9
2017-Oct-24 05:30N 37°03' W 008°39'0 0.4
2017-Oct-24 05:01N 37°03' W 008°39'0 0.3
2017-Oct-24 04:30N 37°03' W 008°39'0 0.2
2017-Oct-24 04:01N 37°03' W 008°39'0 0.2
2017-Oct-24 03:30N 37°03' W 008°39'0 0.3
2017-Oct-24 03:00N 37°03' W 008°39'1 2.0
2017-Oct-24 02:30N 37°03' W 008°38'3 6.8
2017-Oct-24 02:00N 37°03' W 008°34'3 5.9
2017-Oct-24 01:30N 37°04' W 008°30'5 9.5
2017-Oct-24 01:00N 37°05' W 008°36'1 2.3
2017-Oct-24 00:30N 37°04' W 008°37'1 2.8
2017-Oct-24 00:01N 37°05' W 008°39'4 8.2
2017-Oct-23 23:30N 37°05' W 008°34'3 6.6
2017-Oct-23 23:00N 37°08' W 008°32'0 0.0
2017-Oct-23 22:30N 37°08' W 008°32'0 0.0
2017-Oct-23 05:46N 37°08' W 008°32'0 0.0
2017-Oct-23 05:30N 37°08' W 008°32'0 0.0
2017-Oct-23 05:00N 37°08' W 008°32'0 0.1
2017-Oct-23 04:30N 37°08' W 008°32'0 0.0
2017-Oct-23 04:00N 37°08' W 008°32'2 3.9
2017-Oct-23 03:30N 37°06' W 008°32'4 7.1
2017-Oct-23 03:00N 37°04' W 008°36'0 0.4
2017-Oct-23 02:30N 37°05' W 008°36'0 0.3
2017-Oct-23 02:00N 37°05' W 008°36'0 0.3
2017-Oct-23 01:30N 37°05' W 008°36'0 0.2
2017-Oct-23 01:00N 37°05' W 008°36'0 0.1
2017-Oct-23 00:30N 37°05' W 008°36'0 0.2
2017-Oct-23 00:00N 37°05' W 008°36'3 6.2
2017-Oct-22 23:30N 37°06' W 008°33'2 4.7
2017-Oct-22 23:00N 37°08' W 008°32'  
2017-Oct-19 03:45N 37°08' W 008°32'2 6.1
2017-Oct-19 03:30N 37°07' W 008°32'4 7.8
2017-Oct-19 03:00N 37°03' W 008°29'4 7.9
2017-Oct-19 02:30N 37°02' W 008°33'4 8.5
2017-Oct-19 02:00N 37°03' W 008°38'3 5.4
2017-Oct-19 01:30N 37°05' W 008°36'4 8.1
2017-Oct-19 01:00N 37°06' W 008°32'2 3.1
2017-Oct-19 00:30N 37°08' W 008°32'0 0.0
2017-Oct-19 00:00N 37°08' W 008°32'  
Track history (hours):
 
Tides and Currents Weather Stations Pressure Air Temp Water Temp Dewpoint Dewpoint Depression Visibility Wind Speed Wind Dir Waves Ship Positions

Amuras

Last reported at 2017-Oct-24 09:06 UTC. Time now 2017-Nov-23 02:05 UTC.
Position N 37°08' W 008°32'.
Warning: this ship's position is 29 days out of date.

Length 20 m.

Type: Fishing. MMSI: 263421980.

Date/timePositionNaut miles runAvg speedWind from/ knotsBaromVisibWave heightAir tempDewpointWater temp
2017-Oct-24 09:06N 37°08' W 008°32'0 0.0
2017-Oct-24 09:00N 37°08' W 008°32'0 0.0
2017-Oct-24 08:30N 37°08' W 008°32'0 0.0
2017-Oct-24 07:59N 37°08' W 008°32'0 0.0
2017-Oct-24 07:30N 37°08' W 008°32'0 0.1
2017-Oct-24 07:00N 37°08' W 008°32'2 3.9
2017-Oct-24 06:30N 37°06' W 008°32'4 8.5
2017-Oct-24 06:00N 37°04' W 008°37'2 4.9
2017-Oct-24 05:30N 37°03' W 008°39'0 0.4
2017-Oct-24 05:01N 37°03' W 008°39'0 0.3
2017-Oct-24 04:30N 37°03' W 008°39'0 0.2
2017-Oct-24 04:01N 37°03' W 008°39'0 0.2
2017-Oct-24 03:30N 37°03' W 008°39'0 0.3
2017-Oct-24 03:00N 37°03' W 008°39'1 2.0
2017-Oct-24 02:30N 37°03' W 008°38'3 6.8
2017-Oct-24 02:00N 37°03' W 008°34'3 5.9
2017-Oct-24 01:30N 37°04' W 008°30'5 9.5
2017-Oct-24 01:00N 37°05' W 008°36'1 2.3
2017-Oct-24 00:30N 37°04' W 008°37'1 2.8
2017-Oct-24 00:01N 37°05' W 008°39'4 8.2
2017-Oct-23 23:30N 37°05' W 008°34'3 6.6
2017-Oct-23 23:00N 37°08' W 008°32'0 0.0
2017-Oct-23 22:30N 37°08' W 008°32'0 0.0
2017-Oct-23 05:46N 37°08' W 008°32'0 0.0
2017-Oct-23 05:30N 37°08' W 008°32'0 0.0
2017-Oct-23 05:00N 37°08' W 008°32'0 0.1
2017-Oct-23 04:30N 37°08' W 008°32'0 0.0
2017-Oct-23 04:00N 37°08' W 008°32'2 3.9
2017-Oct-23 03:30N 37°06' W 008°32'4 7.1
2017-Oct-23 03:00N 37°04' W 008°36'0 0.4
2017-Oct-23 02:30N 37°05' W 008°36'0 0.3
2017-Oct-23 02:00N 37°05' W 008°36'0 0.3
2017-Oct-23 01:30N 37°05' W 008°36'0 0.2
2017-Oct-23 01:00N 37°05' W 008°36'0 0.1
2017-Oct-23 00:30N 37°05' W 008°36'0 0.2
2017-Oct-23 00:00N 37°05' W 008°36'3 6.2
2017-Oct-22 23:30N 37°06' W 008°33'2 4.7
2017-Oct-22 23:00N 37°08' W 008°32'  
2017-Oct-19 03:45N 37°08' W 008°32'2 6.1
2017-Oct-19 03:30N 37°07' W 008°32'4 7.8
2017-Oct-19 03:00N 37°03' W 008°29'4 7.9
2017-Oct-19 02:30N 37°02' W 008°33'4 8.5
2017-Oct-19 02:00N 37°03' W 008°38'3 5.4
2017-Oct-19 01:30N 37°05' W 008°36'4 8.1
2017-Oct-19 01:00N 37°06' W 008°32'2 3.1
2017-Oct-19 00:30N 37°08' W 008°32'0 0.0
2017-Oct-19 00:00N 37°08' W 008°32'  

Dump ship's entire track history